sensor_id;sensor_type;location;lat;lon;timestamp;P1;durP1;ratioP1;P2;durP2;ratioP2
19231;SDS011;9750;48.730;10.294;2022-10-17T00:01:09;3.60;;;2.93;;
19231;SDS011;9750;48.730;10.294;2022-10-17T00:03:36;6.80;;;3.57;;
19231;SDS011;9750;48.730;10.294;2022-10-17T00:06:05;8.97;;;2.73;;
19231;SDS011;9750;48.730;10.294;2022-10-17T00:08:34;7.00;;;3.10;;
19231;SDS011;9750;48.730;10.294;2022-10-17T00:11:02;9.60;;;2.90;;
19231;SDS011;9750;48.730;10.294;2022-10-17T00:13:32;9.60;;;2.70;;
19231;SDS011;9750;48.730;10.294;2022-10-17T00:15:59;10.40;;;3.00;;
19231;SDS011;9750;48.730;10.294;2022-10-17T00:18:28;6.90;;;2.90;;
19231;SDS011;9750;48.730;10.294;2022-10-17T00:20:55;11.47;;;3.37;;
19231;SDS011;9750;48.730;10.294;2022-10-17T00:23:23;9.10;;;2.90;;
19231;SDS011;9750;48.730;10.294;2022-10-17T00:25:56;8.23;;;3.07;;
19231;SDS011;9750;48.730;10.294;2022-10-17T00:28:24;6.07;;;3.00;;
19231;SDS011;9750;48.730;10.294;2022-10-17T00:30:55;8.33;;;2.97;;
19231;SDS011;9750;48.730;10.294;2022-10-17T00:33:23;8.97;;;3.63;;
19231;SDS011;9750;48.730;10.294;2022-10-17T00:35:53;12.23;;;3.60;;
19231;SDS011;9750;48.730;10.294;2022-10-17T00:38:28;11.80;;;2.93;;
19231;SDS011;9750;48.730;10.294;2022-10-17T00:40:55;13.47;;;3.40;;
19231;SDS011;9750;48.730;10.294;2022-10-17T00:43:23;5.90;;;2.83;;
19231;SDS011;9750;48.730;10.294;2022-10-17T00:45:50;7.93;;;2.87;;
19231;SDS011;9750;48.730;10.294;2022-10-17T00:48:18;10.10;;;2.50;;
19231;SDS011;9750;48.730;10.294;2022-10-17T00:50:47;7.77;;;2.47;;
19231;SDS011;9750;48.730;10.294;2022-10-17T00:53:16;7.37;;;2.60;;
19231;SDS011;9750;48.730;10.294;2022-10-17T00:55:46;6.43;;;2.70;;
19231;SDS011;9750;48.730;10.294;2022-10-17T00:58:16;9.77;;;3.20;;
19231;SDS011;9750;48.730;10.294;2022-10-17T01:00:45;7.33;;;3.17;;
19231;SDS011;9750;48.730;10.294;2022-10-17T01:03:13;6.50;;;3.17;;
19231;SDS011;9750;48.730;10.294;2022-10-17T01:05:41;7.10;;;2.97;;
19231;SDS011;9750;48.730;10.294;2022-10-17T01:08:08;8.30;;;3.70;;
19231;SDS011;9750;48.730;10.294;2022-10-17T01:13:48;7.63;;;3.20;;
19231;SDS011;9750;48.730;10.294;2022-10-17T01:16:21;6.73;;;3.00;;
19231;SDS011;9750;48.730;10.294;2022-10-17T01:19:00;10.20;;;3.10;;
19231;SDS011;9750;48.730;10.294;2022-10-17T01:21:39;6.87;;;3.47;;
19231;SDS011;9750;48.730;10.294;2022-10-17T01:33:45;4.57;;;3.47;;
19231;SDS011;9750;48.730;10.294;2022-10-17T01:36:21;4.60;;;2.60;;
19231;SDS011;9750;48.730;10.294;2022-10-17T01:38:58;2.77;;;2.40;;
19231;SDS011;9750;48.730;10.294;2022-10-17T01:41:34;4.87;;;3.03;;
19231;SDS011;9750;48.730;10.294;2022-10-17T01:44:08;8.73;;;3.07;;
19231;SDS011;9750;48.730;10.294;2022-10-17T01:46:41;10.10;;;3.33;;
19231;SDS011;9750;48.730;10.294;2022-10-17T01:49:12;5.33;;;2.80;;
19231;SDS011;9750;48.730;10.294;2022-10-17T01:51:42;8.17;;;3.37;;
19231;SDS011;9750;48.730;10.294;2022-10-17T01:54:13;8.77;;;3.70;;
19231;SDS011;9750;48.730;10.294;2022-10-17T01:56:46;7.53;;;3.37;;
19231;SDS011;9750;48.730;10.294;2022-10-17T01:59:18;3.93;;;3.10;;
19231;SDS011;9750;48.730;10.294;2022-10-17T02:01:49;5.47;;;2.83;;
19231;SDS011;9750;48.730;10.294;2022-10-17T02:04:19;8.43;;;3.40;;
19231;SDS011;9750;48.730;10.294;2022-10-17T02:06:47;9.10;;;3.27;;
19231;SDS011;9750;48.730;10.294;2022-10-17T02:09:18;8.10;;;3.23;;
19231;SDS011;9750;48.730;10.294;2022-10-17T02:12:03;10.33;;;3.37;;
19231;SDS011;9750;48.730;10.294;2022-10-17T02:14:42;6.33;;;3.17;;
19231;SDS011;9750;48.730;10.294;2022-10-17T02:17:24;9.60;;;3.00;;
19231;SDS011;9750;48.730;10.294;2022-10-17T02:20:02;8.27;;;2.83;;
19231;SDS011;9750;48.730;10.294;2022-10-17T02:22:38;7.00;;;2.60;;
19231;SDS011;9750;48.730;10.294;2022-10-17T02:25:11;7.40;;;2.50;;
19231;SDS011;9750;48.730;10.294;2022-10-17T02:27:44;9.50;;;2.60;;
19231;SDS011;9750;48.730;10.294;2022-10-17T02:30:20;5.27;;;2.60;;
19231;SDS011;9750;48.730;10.294;2022-10-17T02:32:56;11.93;;;2.33;;
19231;SDS011;9750;48.730;10.294;2022-10-17T02:35:28;8.27;;;2.60;;
19231;SDS011;9750;48.730;10.294;2022-10-17T02:37:58;8.47;;;2.47;;
19231;SDS011;9750;48.730;10.294;2022-10-17T02:43:11;11.47;;;3.07;;
19231;SDS011;9750;48.730;10.294;2022-10-17T02:45:40;9.10;;;2.80;;
19231;SDS011;9750;48.730;10.294;2022-10-17T02:48:09;10.03;;;2.40;;
19231;SDS011;9750;48.730;10.294;2022-10-17T02:50:48;9.60;;;2.60;;
19231;SDS011;9750;48.730;10.294;2022-10-17T02:53:24;9.80;;;3.17;;
19231;SDS011;9750;48.730;10.294;2022-10-17T02:55:56;8.27;;;2.73;;
19231;SDS011;9750;48.730;10.294;2022-10-17T02:58:26;6.47;;;3.00;;
19231;SDS011;9750;48.730;10.294;2022-10-17T03:00:56;7.03;;;2.50;;
19231;SDS011;9750;48.730;10.294;2022-10-17T03:03:26;12.70;;;3.03;;
19231;SDS011;9750;48.730;10.294;2022-10-17T03:05:55;7.03;;;2.40;;
19231;SDS011;9750;48.730;10.294;2022-10-17T03:08:22;5.77;;;2.83;;
19231;SDS011;9750;48.730;10.294;2022-10-17T03:10:50;7.07;;;2.63;;
19231;SDS011;9750;48.730;10.294;2022-10-17T03:13:17;6.60;;;2.60;;
19231;SDS011;9750;48.730;10.294;2022-10-17T03:15:45;8.33;;;3.20;;
19231;SDS011;9750;48.730;10.294;2022-10-17T03:18:12;9.93;;;4.67;;
19231;SDS011;9750;48.730;10.294;2022-10-17T03:20:41;5.03;;;3.53;;
19231;SDS011;9750;48.730;10.294;2022-10-17T03:23:08;8.17;;;4.30;;
19231;SDS011;9750;48.730;10.294;2022-10-17T03:25:35;12.27;;;3.87;;
19231;SDS011;9750;48.730;10.294;2022-10-17T03:28:03;5.57;;;3.20;;
19231;SDS011;9750;48.730;10.294;2022-10-17T03:30:30;5.40;;;2.77;;
19231;SDS011;9750;48.730;10.294;2022-10-17T03:32:58;6.67;;;3.77;;
19231;SDS011;9750;48.730;10.294;2022-10-17T03:35:26;8.13;;;3.83;;
19231;SDS011;9750;48.730;10.294;2022-10-17T03:37:55;6.83;;;2.97;;
19231;SDS011;9750;48.730;10.294;2022-10-17T03:43:21;8.33;;;4.13;;
19231;SDS011;9750;48.730;10.294;2022-10-17T03:45:48;27.77;;;4.23;;
19231;SDS011;9750;48.730;10.294;2022-10-17T03:48:16;7.07;;;3.70;;
19231;SDS011;9750;48.730;10.294;2022-10-17T03:50:43;7.03;;;3.97;;
19231;SDS011;9750;48.730;10.294;2022-10-17T03:53:12;8.83;;;4.37;;
19231;SDS011;9750;48.730;10.294;2022-10-17T03:55:39;6.63;;;3.43;;
19231;SDS011;9750;48.730;10.294;2022-10-17T03:58:06;7.13;;;3.97;;
19231;SDS011;9750;48.730;10.294;2022-10-17T04:00:34;8.70;;;4.90;;
19231;SDS011;9750;48.730;10.294;2022-10-17T04:03:01;15.83;;;4.13;;
19231;SDS011;9750;48.730;10.294;2022-10-17T04:05:29;5.07;;;3.07;;
19231;SDS011;9750;48.730;10.294;2022-10-17T04:07:56;8.50;;;3.07;;
19231;SDS011;9750;48.730;10.294;2022-10-17T04:10:25;9.93;;;3.10;;
19231;SDS011;9750;48.730;10.294;2022-10-17T04:12:52;8.93;;;3.17;;
19231;SDS011;9750;48.730;10.294;2022-10-17T04:15:19;11.73;;;2.77;;
19231;SDS011;9750;48.730;10.294;2022-10-17T04:17:46;5.50;;;2.50;;
19231;SDS011;9750;48.730;10.294;2022-10-17T04:20:14;6.03;;;2.70;;
19231;SDS011;9750;48.730;10.294;2022-10-17T04:22:41;12.43;;;2.50;;
19231;SDS011;9750;48.730;10.294;2022-10-17T04:25:08;8.10;;;2.40;;
19231;SDS011;9750;48.730;10.294;2022-10-17T04:27:37;9.37;;;3.03;;
19231;SDS011;9750;48.730;10.294;2022-10-17T04:30:05;4.57;;;2.30;;
19231;SDS011;9750;48.730;10.294;2022-10-17T04:32:35;8.17;;;3.23;;
19231;SDS011;9750;48.730;10.294;2022-10-17T04:35:03;10.37;;;3.97;;
19231;SDS011;9750;48.730;10.294;2022-10-17T04:37:31;8.93;;;4.60;;
19231;SDS011;9750;48.730;10.294;2022-10-17T04:39:58;12.13;;;4.50;;
19231;SDS011;9750;48.730;10.294;2022-10-17T04:42:27;5.43;;;3.77;;
19231;SDS011;9750;48.730;10.294;2022-10-17T04:44:56;7.43;;;3.27;;
19231;SDS011;9750;48.730;10.294;2022-10-17T04:47:23;6.47;;;3.00;;
19231;SDS011;9750;48.730;10.294;2022-10-17T04:49:50;7.90;;;3.50;;
19231;SDS011;9750;48.730;10.294;2022-10-17T04:52:18;10.33;;;3.27;;
19231;SDS011;9750;48.730;10.294;2022-10-17T04:54:45;6.60;;;3.47;;
19231;SDS011;9750;48.730;10.294;2022-10-17T04:57:12;8.80;;;4.20;;
19231;SDS011;9750;48.730;10.294;2022-10-17T04:59:39;7.73;;;4.87;;
19231;SDS011;9750;48.730;10.294;2022-10-17T05:02:08;9.17;;;6.43;;
19231;SDS011;9750;48.730;10.294;2022-10-17T05:04:36;8.47;;;6.07;;
19231;SDS011;9750;48.730;10.294;2022-10-17T05:07:03;9.10;;;6.33;;
19231;SDS011;9750;48.730;10.294;2022-10-17T05:09:30;11.37;;;7.40;;
19231;SDS011;9750;48.730;10.294;2022-10-17T05:11:57;11.10;;;8.17;;
19231;SDS011;9750;48.730;10.294;2022-10-17T05:14:25;15.70;;;14.10;;
19231;SDS011;9750;48.730;10.294;2022-10-17T05:16:52;16.37;;;12.33;;
19231;SDS011;9750;48.730;10.294;2022-10-17T05:19:21;15.97;;;12.43;;
19231;SDS011;9750;48.730;10.294;2022-10-17T05:21:48;11.60;;;10.40;;
19231;SDS011;9750;48.730;10.294;2022-10-17T05:24:15;7.87;;;7.07;;
19231;SDS011;9750;48.730;10.294;2022-10-17T05:26:43;6.37;;;4.70;;
19231;SDS011;9750;48.730;10.294;2022-10-17T05:29:10;5.60;;;4.47;;
19231;SDS011;9750;48.730;10.294;2022-10-17T05:31:37;5.67;;;4.50;;
19231;SDS011;9750;48.730;10.294;2022-10-17T05:34:04;5.77;;;4.90;;
19231;SDS011;9750;48.730;10.294;2022-10-17T05:36:33;9.40;;;6.10;;
19231;SDS011;9750;48.730;10.294;2022-10-17T05:39:00;6.90;;;5.30;;
19231;SDS011;9750;48.730;10.294;2022-10-17T05:41:28;9.67;;;5.80;;
19231;SDS011;9750;48.730;10.294;2022-10-17T05:43:55;9.57;;;5.70;;
19231;SDS011;9750;48.730;10.294;2022-10-17T05:46:22;8.33;;;4.83;;
19231;SDS011;9750;48.730;10.294;2022-10-17T05:48:50;6.97;;;5.73;;
19231;SDS011;9750;48.730;10.294;2022-10-17T05:51:19;8.53;;;7.53;;
19231;SDS011;9750;48.730;10.294;2022-10-17T05:53:48;17.20;;;10.97;;
19231;SDS011;9750;48.730;10.294;2022-10-17T05:56:15;13.63;;;11.37;;
19231;SDS011;9750;48.730;10.294;2022-10-17T05:58:44;21.17;;;15.00;;
19231;SDS011;9750;48.730;10.294;2022-10-17T06:01:11;15.03;;;12.83;;
19231;SDS011;9750;48.730;10.294;2022-10-17T06:03:39;15.47;;;11.40;;
19231;SDS011;9750;48.730;10.294;2022-10-17T06:06:07;16.53;;;13.27;;
19231;SDS011;9750;48.730;10.294;2022-10-17T06:08:35;11.23;;;9.23;;
19231;SDS011;9750;48.730;10.294;2022-10-17T06:11:04;11.00;;;9.17;;
19231;SDS011;9750;48.730;10.294;2022-10-17T06:13:31;12.90;;;7.93;;
19231;SDS011;9750;48.730;10.294;2022-10-17T06:15:59;11.93;;;8.10;;
19231;SDS011;9750;48.730;10.294;2022-10-17T06:18:26;12.27;;;8.43;;
19231;SDS011;9750;48.730;10.294;2022-10-17T06:20:53;7.67;;;6.70;;
19231;SDS011;9750;48.730;10.294;2022-10-17T06:23:27;12.53;;;6.77;;
19231;SDS011;9750;48.730;10.294;2022-10-17T06:25:56;9.43;;;6.47;;
19231;SDS011;9750;48.730;10.294;2022-10-17T06:28:26;9.20;;;7.50;;
19231;SDS011;9750;48.730;10.294;2022-10-17T06:30:54;10.67;;;9.57;;
19231;SDS011;9750;48.730;10.294;2022-10-17T06:33:21;9.27;;;7.30;;
19231;SDS011;9750;48.730;10.294;2022-10-17T06:35:51;9.63;;;6.63;;
19231;SDS011;9750;48.730;10.294;2022-10-17T06:38:19;16.47;;;7.97;;
19231;SDS011;9750;48.730;10.294;2022-10-17T06:40:47;15.07;;;10.10;;
19231;SDS011;9750;48.730;10.294;2022-10-17T06:43:15;10.37;;;7.97;;
19231;SDS011;9750;48.730;10.294;2022-10-17T06:45:43;8.67;;;7.47;;
19231;SDS011;9750;48.730;10.294;2022-10-17T06:48:11;7.10;;;6.40;;
19231;SDS011;9750;48.730;10.294;2022-10-17T06:50:39;9.83;;;6.87;;
19231;SDS011;9750;48.730;10.294;2022-10-17T06:53:06;11.30;;;9.80;;
19231;SDS011;9750;48.730;10.294;2022-10-17T06:55:34;16.93;;;15.03;;
19231;SDS011;9750;48.730;10.294;2022-10-17T06:58:01;14.60;;;13.10;;
19231;SDS011;9750;48.730;10.294;2022-10-17T07:00:28;13.67;;;10.67;;
19231;SDS011;9750;48.730;10.294;2022-10-17T07:02:57;11.40;;;8.77;;
19231;SDS011;9750;48.730;10.294;2022-10-17T07:05:24;23.23;;;20.80;;
19231;SDS011;9750;48.730;10.294;2022-10-17T07:07:52;24.63;;;22.03;;
19231;SDS011;9750;48.730;10.294;2022-10-17T07:10:19;32.63;;;29.10;;
19231;SDS011;9750;48.730;10.294;2022-10-17T07:12:46;24.40;;;21.90;;
19231;SDS011;9750;48.730;10.294;2022-10-17T07:15:13;19.70;;;17.77;;
19231;SDS011;9750;48.730;10.294;2022-10-17T07:17:41;18.77;;;16.77;;
19231;SDS011;9750;48.730;10.294;2022-10-17T07:20:10;11.80;;;10.53;;
19231;SDS011;9750;48.730;10.294;2022-10-17T07:22:37;13.17;;;10.33;;
19231;SDS011;9750;48.730;10.294;2022-10-17T07:25:05;15.60;;;9.67;;
19231;SDS011;9750;48.730;10.294;2022-10-17T07:27:34;12.33;;;8.87;;
19231;SDS011;9750;48.730;10.294;2022-10-17T07:32:36;8.47;;;7.63;;
19231;SDS011;9750;48.730;10.294;2022-10-17T07:35:04;9.77;;;7.70;;
19231;SDS011;9750;48.730;10.294;2022-10-17T07:37:33;7.90;;;6.37;;
19231;SDS011;9750;48.730;10.294;2022-10-17T07:40:00;11.23;;;6.90;;
19231;SDS011;9750;48.730;10.294;2022-10-17T07:42:27;7.27;;;6.57;;
19231;SDS011;9750;48.730;10.294;2022-10-17T07:44:54;7.87;;;5.90;;
19231;SDS011;9750;48.730;10.294;2022-10-17T07:47:22;7.27;;;6.10;;
19231;SDS011;9750;48.730;10.294;2022-10-17T07:49:49;9.70;;;5.63;;
19231;SDS011;9750;48.730;10.294;2022-10-17T07:52:16;9.30;;;7.90;;
19231;SDS011;9750;48.730;10.294;2022-10-17T07:54:45;6.93;;;5.67;;
19231;SDS011;9750;48.730;10.294;2022-10-17T07:57:12;8.73;;;5.80;;
19231;SDS011;9750;48.730;10.294;2022-10-17T07:59:40;9.60;;;5.17;;
19231;SDS011;9750;48.730;10.294;2022-10-17T08:02:07;9.10;;;5.47;;
19231;SDS011;9750;48.730;10.294;2022-10-17T08:04:39;8.20;;;5.50;;
19231;SDS011;9750;48.730;10.294;2022-10-17T08:07:06;9.87;;;5.10;;
19231;SDS011;9750;48.730;10.294;2022-10-17T08:09:34;7.43;;;5.47;;
19231;SDS011;9750;48.730;10.294;2022-10-17T08:12:03;7.60;;;5.00;;
19231;SDS011;9750;48.730;10.294;2022-10-17T08:14:31;7.43;;;6.57;;
19231;SDS011;9750;48.730;10.294;2022-10-17T08:16:58;7.23;;;6.33;;
19231;SDS011;9750;48.730;10.294;2022-10-17T08:21:57;8.47;;;6.07;;
19231;SDS011;9750;48.730;10.294;2022-10-17T08:24:25;6.73;;;6.13;;
19231;SDS011;9750;48.730;10.294;2022-10-17T08:26:52;7.90;;;6.37;;
19231;SDS011;9750;48.730;10.294;2022-10-17T08:29:23;7.83;;;5.93;;
19231;SDS011;9750;48.730;10.294;2022-10-17T08:31:50;9.27;;;6.17;;
19231;SDS011;9750;48.730;10.294;2022-10-17T08:34:18;6.80;;;5.33;;
19231;SDS011;9750;48.730;10.294;2022-10-17T08:36:45;21.23;;;14.03;;
19231;SDS011;9750;48.730;10.294;2022-10-17T08:39:12;23.90;;;14.70;;
19231;SDS011;9750;48.730;10.294;2022-10-17T08:41:43;15.83;;;10.63;;
19231;SDS011;9750;48.730;10.294;2022-10-17T08:44:23;7.23;;;6.43;;
19231;SDS011;9750;48.730;10.294;2022-10-17T08:47:00;8.67;;;5.47;;
19231;SDS011;9750;48.730;10.294;2022-10-17T08:49:32;12.27;;;6.57;;
19231;SDS011;9750;48.730;10.294;2022-10-17T08:52:05;18.27;;;8.57;;
19231;SDS011;9750;48.730;10.294;2022-10-17T08:54:40;10.90;;;6.63;;
19231;SDS011;9750;48.730;10.294;2022-10-17T08:57:10;8.53;;;6.43;;
19231;SDS011;9750;48.730;10.294;2022-10-17T08:59:41;9.27;;;6.67;;
19231;SDS011;9750;48.730;10.294;2022-10-17T09:02:15;11.63;;;6.30;;
19231;SDS011;9750;48.730;10.294;2022-10-17T09:05:05;9.50;;;6.43;;
19231;SDS011;9750;48.730;10.294;2022-10-17T09:07:48;9.30;;;6.80;;
19231;SDS011;9750;48.730;10.294;2022-10-17T09:10:23;11.40;;;6.80;;
19231;SDS011;9750;48.730;10.294;2022-10-17T09:13:02;10.43;;;7.63;;
19231;SDS011;9750;48.730;10.294;2022-10-17T09:15:44;7.67;;;5.90;;
19231;SDS011;9750;48.730;10.294;2022-10-17T09:18:22;6.97;;;6.27;;
19231;SDS011;9750;48.730;10.294;2022-10-17T09:20:53;11.63;;;7.37;;
19231;SDS011;9750;48.730;10.294;2022-10-17T09:23:25;7.97;;;6.87;;
19231;SDS011;9750;48.730;10.294;2022-10-17T09:25:57;8.97;;;7.30;;
19231;SDS011;9750;48.730;10.294;2022-10-17T09:28:27;9.33;;;8.33;;
19231;SDS011;9750;48.730;10.294;2022-10-17T09:30:59;8.90;;;7.97;;
19231;SDS011;9750;48.730;10.294;2022-10-17T09:33:29;8.33;;;6.87;;
19231;SDS011;9750;48.730;10.294;2022-10-17T09:36:00;9.10;;;7.83;;
19231;SDS011;9750;48.730;10.294;2022-10-17T09:38:30;8.17;;;7.03;;
19231;SDS011;9750;48.730;10.294;2022-10-17T09:41:05;9.33;;;7.47;;
19231;SDS011;9750;48.730;10.294;2022-10-17T09:43:38;7.67;;;6.43;;
19231;SDS011;9750;48.730;10.294;2022-10-17T09:46:08;6.93;;;6.23;;
19231;SDS011;9750;48.730;10.294;2022-10-17T09:48:41;9.73;;;8.50;;
19231;SDS011;9750;48.730;10.294;2022-10-17T09:51:12;12.03;;;8.33;;
19231;SDS011;9750;48.730;10.294;2022-10-17T09:53:41;8.03;;;6.83;;
19231;SDS011;9750;48.730;10.294;2022-10-17T09:56:12;9.03;;;6.53;;
19231;SDS011;9750;48.730;10.294;2022-10-17T09:58:42;8.07;;;5.87;;
19231;SDS011;9750;48.730;10.294;2022-10-17T10:01:16;6.70;;;5.90;;
19231;SDS011;9750;48.730;10.294;2022-10-17T10:03:46;7.23;;;6.53;;
19231;SDS011;9750;48.730;10.294;2022-10-17T10:06:14;7.13;;;5.60;;
19231;SDS011;9750;48.730;10.294;2022-10-17T10:08:49;7.10;;;6.40;;
19231;SDS011;9750;48.730;10.294;2022-10-17T10:11:18;7.20;;;6.37;;
19231;SDS011;9750;48.730;10.294;2022-10-17T10:13:48;9.23;;;6.20;;
19231;SDS011;9750;48.730;10.294;2022-10-17T10:16:22;7.67;;;6.20;;
19231;SDS011;9750;48.730;10.294;2022-10-17T10:18:56;7.63;;;6.13;;
19231;SDS011;9750;48.730;10.294;2022-10-17T10:21:24;7.20;;;5.70;;
19231;SDS011;9750;48.730;10.294;2022-10-17T10:24:03;8.37;;;5.50;;
19231;SDS011;9750;48.730;10.294;2022-10-17T10:26:37;5.83;;;5.23;;
19231;SDS011;9750;48.730;10.294;2022-10-17T10:29:21;9.10;;;6.10;;
19231;SDS011;9750;48.730;10.294;2022-10-17T10:31:54;11.50;;;7.50;;
19231;SDS011;9750;48.730;10.294;2022-10-17T10:34:22;4.83;;;4.33;;
19231;SDS011;9750;48.730;10.294;2022-10-17T10:36:55;3.33;;;2.97;;
19231;SDS011;9750;48.730;10.294;2022-10-17T10:39:37;4.57;;;2.70;;
19231;SDS011;9750;48.730;10.294;2022-10-17T10:42:16;3.77;;;2.60;;
19231;SDS011;9750;48.730;10.294;2022-10-17T10:44:49;2.90;;;2.60;;
19231;SDS011;9750;48.730;10.294;2022-10-17T10:47:22;3.40;;;2.50;;
19231;SDS011;9750;48.730;10.294;2022-10-17T10:49:52;6.23;;;3.00;;
19231;SDS011;9750;48.730;10.294;2022-10-17T10:52:35;4.60;;;2.97;;
19231;SDS011;9750;48.730;10.294;2022-10-17T10:55:15;5.07;;;2.83;;
19231;SDS011;9750;48.730;10.294;2022-10-17T10:57:48;5.15;;;3.28;;
19231;SDS011;9750;48.730;10.294;2022-10-17T11:03:34;5.47;;;2.80;;
19231;SDS011;9750;48.730;10.294;2022-10-17T11:06:07;3.30;;;3.00;;
19231;SDS011;9750;48.730;10.294;2022-10-17T11:08:39;6.75;;;3.05;;
19231;SDS011;9750;48.730;10.294;2022-10-17T11:11:12;4.70;;;2.90;;
19231;SDS011;9750;48.730;10.294;2022-10-17T11:13:44;6.85;;;3.28;;
19231;SDS011;9750;48.730;10.294;2022-10-17T11:16:19;3.40;;;3.10;;
19231;SDS011;9750;48.730;10.294;2022-10-17T11:18:55;5.83;;;2.73;;
19231;SDS011;9750;48.730;10.294;2022-10-17T11:21:32;4.72;;;3.05;;
19231;SDS011;9750;48.730;10.294;2022-10-17T11:24:06;2.70;;;2.50;;
19231;SDS011;9750;48.730;10.294;2022-10-17T11:26:41;3.85;;;2.80;;
19231;SDS011;9750;48.730;10.294;2022-10-17T11:29:11;6.75;;;3.10;;
19231;SDS011;9750;48.730;10.294;2022-10-17T11:31:43;5.22;;;2.80;;
19231;SDS011;9750;48.730;10.294;2022-10-17T11:34:17;3.00;;;2.70;;
19231;SDS011;9750;48.730;10.294;2022-10-17T11:36:48;5.97;;;3.25;;
19231;SDS011;9750;48.730;10.294;2022-10-17T11:39:19;5.40;;;2.92;;
19231;SDS011;9750;48.730;10.294;2022-10-17T11:41:54;3.72;;;2.78;;
19231;SDS011;9750;48.730;10.294;2022-10-17T11:44:26;4.90;;;3.15;;
19231;SDS011;9750;48.730;10.294;2022-10-17T11:47:03;3.72;;;2.70;;
19231;SDS011;9750;48.730;10.294;2022-10-17T11:49:39;3.38;;;2.88;;
19231;SDS011;9750;48.730;10.294;2022-10-17T11:52:17;4.57;;;3.05;;
19231;SDS011;9750;48.730;10.294;2022-10-17T11:54:52;5.47;;;3.00;;
19231;SDS011;9750;48.730;10.294;2022-10-17T11:57:31;2.80;;;2.60;;
19231;SDS011;9750;48.730;10.294;2022-10-17T12:00:10;5.28;;;3.08;;
19231;SDS011;9750;48.730;10.294;2022-10-17T12:02:50;5.93;;;3.00;;
19231;SDS011;9750;48.730;10.294;2022-10-17T12:05:25;3.65;;;2.90;;
19231;SDS011;9750;48.730;10.294;2022-10-17T12:07:58;6.18;;;2.83;;
19231;SDS011;9750;48.730;10.294;2022-10-17T12:10:42;8.68;;;3.00;;
19231;SDS011;9750;48.730;10.294;2022-10-17T12:19:29;5.20;;;2.70;;
19231;SDS011;9750;48.730;10.294;2022-10-17T12:24:56;5.35;;;3.17;;
19231;SDS011;9750;48.730;10.294;2022-10-17T12:30:16;6.03;;;3.08;;
19231;SDS011;9750;48.730;10.294;2022-10-17T12:32:56;5.97;;;3.67;;
19231;SDS011;9750;48.730;10.294;2022-10-17T12:35:28;7.30;;;3.47;;
19231;SDS011;9750;48.730;10.294;2022-10-17T12:40:50;4.03;;;3.22;;
19231;SDS011;9750;48.730;10.294;2022-10-17T12:43:33;3.90;;;3.20;;
19231;SDS011;9750;48.730;10.294;2022-10-17T12:52:22;8.50;;;3.75;;
19231;SDS011;9750;48.730;10.294;2022-10-17T12:55:16;5.43;;;3.15;;
19231;SDS011;9750;48.730;10.294;2022-10-17T12:57:49;11.15;;;3.53;;
19231;SDS011;9750;48.730;10.294;2022-10-17T13:00:21;7.70;;;3.92;;
19231;SDS011;9750;48.730;10.294;2022-10-17T13:02:54;7.18;;;3.28;;
19231;SDS011;9750;48.730;10.294;2022-10-17T13:05:28;9.20;;;3.30;;
19231;SDS011;9750;48.730;10.294;2022-10-17T13:07:58;8.73;;;3.42;;
19231;SDS011;9750;48.730;10.294;2022-10-17T13:13:51;6.57;;;3.38;;
19231;SDS011;9750;48.730;10.294;2022-10-17T13:16:26;9.98;;;3.38;;
19231;SDS011;9750;48.730;10.294;2022-10-17T13:18:54;10.52;;;3.78;;
19231;SDS011;9750;48.730;10.294;2022-10-17T13:21:22;8.18;;;3.50;;
19231;SDS011;9750;48.730;10.294;2022-10-17T13:23:51;7.72;;;3.80;;
19231;SDS011;9750;48.730;10.294;2022-10-17T13:26:19;18.83;;;3.90;;
19231;SDS011;9750;48.730;10.294;2022-10-17T13:29:03;13.00;;;3.45;;
19231;SDS011;9750;48.730;10.294;2022-10-17T13:31:36;10.77;;;3.20;;
19231;SDS011;9750;48.730;10.294;2022-10-17T13:34:04;9.38;;;3.40;;
19231;SDS011;9750;48.730;10.294;2022-10-17T13:36:40;10.63;;;3.72;;
19231;SDS011;9750;48.730;10.294;2022-10-17T13:39:11;7.50;;;3.42;;
19231;SDS011;9750;48.730;10.294;2022-10-17T13:41:41;10.30;;;3.90;;
19231;SDS011;9750;48.730;10.294;2022-10-17T13:44:11;16.42;;;3.80;;
19231;SDS011;9750;48.730;10.294;2022-10-17T13:46:41;11.75;;;3.50;;
19231;SDS011;9750;48.730;10.294;2022-10-17T13:49:10;5.93;;;3.35;;
19231;SDS011;9750;48.730;10.294;2022-10-17T13:51:43;7.47;;;3.25;;
19231;SDS011;9750;48.730;10.294;2022-10-17T13:57:04;6.63;;;3.38;;
19231;SDS011;9750;48.730;10.294;2022-10-17T13:59:43;7.15;;;3.45;;
19231;SDS011;9750;48.730;10.294;2022-10-17T14:02:13;8.43;;;3.17;;
19231;SDS011;9750;48.730;10.294;2022-10-17T14:04:42;13.85;;;4.35;;
19231;SDS011;9750;48.730;10.294;2022-10-17T14:07:20;11.23;;;3.53;;
19231;SDS011;9750;48.730;10.294;2022-10-17T14:09:51;12.38;;;4.55;;
19231;SDS011;9750;48.730;10.294;2022-10-17T14:12:19;5.93;;;3.58;;
19231;SDS011;9750;48.730;10.294;2022-10-17T14:14:49;8.10;;;2.92;;
19231;SDS011;9750;48.730;10.294;2022-10-17T14:17:21;4.40;;;2.65;;
19231;SDS011;9750;48.730;10.294;2022-10-17T14:19:51;5.32;;;2.50;;
19231;SDS011;9750;48.730;10.294;2022-10-17T14:22:24;6.50;;;2.80;;
19231;SDS011;9750;48.730;10.294;2022-10-17T14:24:53;5.82;;;2.45;;
19231;SDS011;9750;48.730;10.294;2022-10-17T14:27:26;5.57;;;2.70;;
19231;SDS011;9750;48.730;10.294;2022-10-17T14:29:56;7.45;;;2.95;;
19231;SDS011;9750;48.730;10.294;2022-10-17T14:32:27;13.13;;;3.47;;
19231;SDS011;9750;48.730;10.294;2022-10-17T14:34:57;13.18;;;3.45;;
19231;SDS011;9750;48.730;10.294;2022-10-17T14:37:29;9.10;;;2.67;;
19231;SDS011;9750;48.730;10.294;2022-10-17T14:40:13;7.70;;;2.95;;
19231;SDS011;9750;48.730;10.294;2022-10-17T14:42:42;11.00;;;2.83;;
19231;SDS011;9750;48.730;10.294;2022-10-17T14:45:13;5.97;;;2.90;;
19231;SDS011;9750;48.730;10.294;2022-10-17T14:47:47;11.35;;;3.17;;
19231;SDS011;9750;48.730;10.294;2022-10-17T14:50:22;9.35;;;2.97;;
19231;SDS011;9750;48.730;10.294;2022-10-17T14:53:00;13.85;;;3.20;;
19231;SDS011;9750;48.730;10.294;2022-10-17T14:55:30;9.05;;;2.30;;
19231;SDS011;9750;48.730;10.294;2022-10-17T14:57:58;8.68;;;2.65;;
19231;SDS011;9750;48.730;10.294;2022-10-17T15:00:27;7.00;;;2.75;;
19231;SDS011;9750;48.730;10.294;2022-10-17T15:02:54;7.88;;;2.55;;
19231;SDS011;9750;48.730;10.294;2022-10-17T15:05:22;10.77;;;3.17;;
19231;SDS011;9750;48.730;10.294;2022-10-17T15:07:49;11.38;;;3.22;;
19231;SDS011;9750;48.730;10.294;2022-10-17T15:13:06;11.45;;;2.90;;
19231;SDS011;9750;48.730;10.294;2022-10-17T15:15:36;10.73;;;2.70;;
19231;SDS011;9750;48.730;10.294;2022-10-17T15:18:05;12.98;;;3.30;;
19231;SDS011;9750;48.730;10.294;2022-10-17T15:20:33;9.20;;;2.53;;
19231;SDS011;9750;48.730;10.294;2022-10-17T15:23:01;8.90;;;2.45;;
19231;SDS011;9750;48.730;10.294;2022-10-17T15:25:29;10.18;;;2.90;;
19231;SDS011;9750;48.730;10.294;2022-10-17T15:27:58;11.15;;;2.75;;
19231;SDS011;9750;48.730;10.294;2022-10-17T15:30:26;12.82;;;3.70;;
19231;SDS011;9750;48.730;10.294;2022-10-17T15:32:57;13.38;;;2.50;;
19231;SDS011;9750;48.730;10.294;2022-10-17T15:35:25;11.18;;;2.72;;
19231;SDS011;9750;48.730;10.294;2022-10-17T15:37:53;7.47;;;2.72;;
19231;SDS011;9750;48.730;10.294;2022-10-17T15:40:21;10.88;;;3.22;;
19231;SDS011;9750;48.730;10.294;2022-10-17T15:42:49;9.90;;;2.70;;
19231;SDS011;9750;48.730;10.294;2022-10-17T15:45:17;8.80;;;2.67;;
19231;SDS011;9750;48.730;10.294;2022-10-17T15:47:48;7.97;;;2.63;;
19231;SDS011;9750;48.730;10.294;2022-10-17T15:50:18;6.68;;;2.38;;
19231;SDS011;9750;48.730;10.294;2022-10-17T15:52:45;5.93;;;2.50;;
19231;SDS011;9750;48.730;10.294;2022-10-17T15:55:15;8.43;;;2.53;;
19231;SDS011;9750;48.730;10.294;2022-10-17T15:57:44;9.32;;;2.55;;
19231;SDS011;9750;48.730;10.294;2022-10-17T16:00:14;8.30;;;2.40;;